sensor_id;sensor_type;location;lat;lon;timestamp;temperature;humidity
54429;DHT22;40337;52.978;6.310;2022-11-20T00:01:16;-0.30;99.90
54429;DHT22;40337;52.978;6.310;2022-11-20T00:03:42;-0.30;99.90
54429;DHT22;40337;52.978;6.310;2022-11-20T00:06:10;-0.30;99.90
54429;DHT22;40337;52.978;6.310;2022-11-20T00:08:37;-0.40;99.90
54429;DHT22;40337;52.978;6.310;2022-11-20T00:11:07;-0.40;99.90
54429;DHT22;40337;52.978;6.310;2022-11-20T00:13:33;-0.30;99.90
54429;DHT22;40337;52.978;6.310;2022-11-20T00:16:00;-0.30;99.90
54429;DHT22;40337;52.978;6.310;2022-11-20T00:18:27;-0.30;99.90
54429;DHT22;40337;52.978;6.310;2022-11-20T00:20:53;-0.30;99.90
54429;DHT22;40337;52.978;6.310;2022-11-20T00:23:19;-0.20;99.90
54429;DHT22;40337;52.978;6.310;2022-11-20T00:25:45;-0.20;99.90
54429;DHT22;40337;52.978;6.310;2022-11-20T00:28:11;-0.10;99.90
54429;DHT22;40337;52.978;6.310;2022-11-20T00:30:36;-0.20;99.90
54429;DHT22;40337;52.978;6.310;2022-11-20T00:33:02;-0.20;99.90
54429;DHT22;40337;52.978;6.310;2022-11-20T00:35:27;-0.10;99.90
54429;DHT22;40337;52.978;6.310;2022-11-20T00:37:53;-0.10;99.90
54429;DHT22;40337;52.978;6.310;2022-11-20T00:40:18;-0.10;99.90
54429;DHT22;40337;52.978;6.310;2022-11-20T00:42:44;-0.10;99.90
54429;DHT22;40337;52.978;6.310;2022-11-20T00:45:09;-0.10;99.90
54429;DHT22;40337;52.978;6.310;2022-11-20T00:47:35;-0.10;99.90
54429;DHT22;40337;52.978;6.310;2022-11-20T00:50:00;0.00;99.90
54429;DHT22;40337;52.978;6.310;2022-11-20T00:52:26;0.00;99.90
54429;DHT22;40337;52.978;6.310;2022-11-20T00:54:51;0.00;99.90
54429;DHT22;40337;52.978;6.310;2022-11-20T00:57:17;0.00;99.90
54429;DHT22;40337;52.978;6.310;2022-11-20T00:59:42;0.00;99.90
54429;DHT22;40337;52.978;6.310;2022-11-20T01:02:08;0.00;99.90
54429;DHT22;40337;52.978;6.310;2022-11-20T01:04:34;0.00;99.90
54429;DHT22;40337;52.978;6.310;2022-11-20T01:06:59;0.10;99.90
54429;DHT22;40337;52.978;6.310;2022-11-20T01:09:25;0.10;99.90
54429;DHT22;40337;52.978;6.310;2022-11-20T01:11:50;0.00;99.90
54429;DHT22;40337;52.978;6.310;2022-11-20T01:14:18;0.00;99.90
54429;DHT22;40337;52.978;6.310;2022-11-20T01:16:47;0.10;99.90
54429;DHT22;40337;52.978;6.310;2022-11-20T01:19:16;0.00;99.90
54429;DHT22;40337;52.978;6.310;2022-11-20T01:21:43;0.00;99.90
54429;DHT22;40337;52.978;6.310;2022-11-20T01:24:14;0.00;99.90
54429;DHT22;40337;52.978;6.310;2022-11-20T01:26:42;0.00;99.90
54429;DHT22;40337;52.978;6.310;2022-11-20T01:29:20;-0.10;99.90
54429;DHT22;40337;52.978;6.310;2022-11-20T01:31:46;0.00;99.90
54429;DHT22;40337;52.978;6.310;2022-11-20T01:34:15;0.00;99.90
54429;DHT22;40337;52.978;6.310;2022-11-20T01:36:42;0.00;99.90
54429;DHT22;40337;52.978;6.310;2022-11-20T01:39:16;0.00;99.90
54429;DHT22;40337;52.978;6.310;2022-11-20T01:41:43;-0.10;99.90
54429;DHT22;40337;52.978;6.310;2022-11-20T01:45:00;-0.20;99.90
54429;DHT22;40337;52.978;6.310;2022-11-20T01:47:36;-0.10;99.90
54429;DHT22;40337;52.978;6.310;2022-11-20T01:50:14;-0.10;99.90
54429;DHT22;40337;52.978;6.310;2022-11-20T01:52:49;0.00;99.90
54429;DHT22;40337;52.978;6.310;2022-11-20T01:55:25;0.00;99.90
54429;DHT22;40337;52.978;6.310;2022-11-20T01:57:51;0.00;99.90
54429;DHT22;40337;52.978;6.310;2022-11-20T02:00:19;0.00;99.90
54429;DHT22;40337;52.978;6.310;2022-11-20T02:02:54;0.10;99.90
54429;DHT22;40337;52.978;6.310;2022-11-20T02:07:49;0.10;99.90
54429;DHT22;40337;52.978;6.310;2022-11-20T02:10:16;0.20;99.90
54429;DHT22;40337;52.978;6.310;2022-11-20T02:12:41;0.20;99.90
54429;DHT22;40337;52.978;6.310;2022-11-20T02:15:25;0.20;99.90
54429;DHT22;40337;52.978;6.310;2022-11-20T02:17:51;0.20;99.90
54429;DHT22;40337;52.978;6.310;2022-11-20T02:20:17;0.20;99.90
54429;DHT22;40337;52.978;6.310;2022-11-20T02:22:58;0.20;99.90
54429;DHT22;40337;52.978;6.310;2022-11-20T02:25:26;0.20;99.90
54429;DHT22;40337;52.978;6.310;2022-11-20T02:27:52;0.20;99.90
54429;DHT22;40337;52.978;6.310;2022-11-20T02:30:18;0.20;99.90
54429;DHT22;40337;52.978;6.310;2022-11-20T02:32:43;0.20;99.90
54429;DHT22;40337;52.978;6.310;2022-11-20T02:37:57;0.10;99.90
54429;DHT22;40337;52.978;6.310;2022-11-20T02:40:23;0.10;99.90
54429;DHT22;40337;52.978;6.310;2022-11-20T02:42:56;0.00;99.90
54429;DHT22;40337;52.978;6.310;2022-11-20T02:45:22;0.00;99.90
54429;DHT22;40337;52.978;6.310;2022-11-20T02:47:48;0.10;99.90
54429;DHT22;40337;52.978;6.310;2022-11-20T02:50:14;0.10;99.90
54429;DHT22;40337;52.978;6.310;2022-11-20T02:52:39;0.10;99.90
54429;DHT22;40337;52.978;6.310;2022-11-20T02:55:05;0.20;99.90
54429;DHT22;40337;52.978;6.310;2022-11-20T02:57:31;0.20;99.90
54429;DHT22;40337;52.978;6.310;2022-11-20T02:59:57;0.20;99.90
54429;DHT22;40337;52.978;6.310;2022-11-20T03:02:22;0.30;99.90
54429;DHT22;40337;52.978;6.310;2022-11-20T03:04:48;0.30;99.90
54429;DHT22;40337;52.978;6.310;2022-11-20T03:07:13;0.30;99.90
54429;DHT22;40337;52.978;6.310;2022-11-20T03:09:39;0.30;99.90
54429;DHT22;40337;52.978;6.310;2022-11-20T03:12:05;0.30;99.90
54429;DHT22;40337;52.978;6.310;2022-11-20T03:14:31;0.20;99.90
54429;DHT22;40337;52.978;6.310;2022-11-20T03:16:56;0.20;99.90
54429;DHT22;40337;52.978;6.310;2022-11-20T03:19:22;0.20;99.90
54429;DHT22;40337;52.978;6.310;2022-11-20T03:21:47;0.20;99.90
54429;DHT22;40337;52.978;6.310;2022-11-20T03:24:14;0.20;99.90
54429;DHT22;40337;52.978;6.310;2022-11-20T03:26:40;0.10;99.90
54429;DHT22;40337;52.978;6.310;2022-11-20T03:29:06;0.10;99.90
54429;DHT22;40337;52.978;6.310;2022-11-20T03:31:36;0.10;99.90
54429;DHT22;40337;52.978;6.310;2022-11-20T03:34:03;0.10;99.90
54429;DHT22;40337;52.978;6.310;2022-11-20T03:36:29;0.10;99.90
54429;DHT22;40337;52.978;6.310;2022-11-20T03:38:56;0.10;99.90
54429;DHT22;40337;52.978;6.310;2022-11-20T03:41:27;0.10;99.90
54429;DHT22;40337;52.978;6.310;2022-11-20T03:43:58;0.10;99.90
54429;DHT22;40337;52.978;6.310;2022-11-20T03:46:24;0.20;99.90
54429;DHT22;40337;52.978;6.310;2022-11-20T03:48:50;0.20;99.90
54429;DHT22;40337;52.978;6.310;2022-11-20T03:51:24;0.10;99.90
54429;DHT22;40337;52.978;6.310;2022-11-20T03:53:52;0.10;99.90
54429;DHT22;40337;52.978;6.310;2022-11-20T03:56:20;0.10;99.90
54429;DHT22;40337;52.978;6.310;2022-11-20T03:58:46;0.10;99.90
54429;DHT22;40337;52.978;6.310;2022-11-20T04:01:18;0.10;99.90
54429;DHT22;40337;52.978;6.310;2022-11-20T04:03:44;0.10;99.90
54429;DHT22;40337;52.978;6.310;2022-11-20T04:06:19;0.10;99.90
54429;DHT22;40337;52.978;6.310;2022-11-20T04:08:45;0.20;99.90
54429;DHT22;40337;52.978;6.310;2022-11-20T04:11:19;0.20;99.90
54429;DHT22;40337;52.978;6.310;2022-11-20T04:13:50;0.10;99.90
54429;DHT22;40337;52.978;6.310;2022-11-20T04:16:16;0.10;99.90
54429;DHT22;40337;52.978;6.310;2022-11-20T04:18:42;0.10;99.90
54429;DHT22;40337;52.978;6.310;2022-11-20T04:21:09;0.10;99.90
54429;DHT22;40337;52.978;6.310;2022-11-20T04:23:35;0.10;99.90
54429;DHT22;40337;52.978;6.310;2022-11-20T04:26:09;0.10;99.90
54429;DHT22;40337;52.978;6.310;2022-11-20T04:28:36;0.20;99.90
54429;DHT22;40337;52.978;6.310;2022-11-20T04:31:06;0.20;99.90
54429;DHT22;40337;52.978;6.310;2022-11-20T04:33:33;0.20;99.90
54429;DHT22;40337;52.978;6.310;2022-11-20T04:36:04;0.20;99.90
54429;DHT22;40337;52.978;6.310;2022-11-20T04:38:30;0.20;99.90
54429;DHT22;40337;52.978;6.310;2022-11-20T04:40:57;0.20;99.90
54429;DHT22;40337;52.978;6.310;2022-11-20T04:43:23;0.20;99.90
54429;DHT22;40337;52.978;6.310;2022-11-20T04:45:53;0.20;99.90
54429;DHT22;40337;52.978;6.310;2022-11-20T04:48:19;0.10;99.90
54429;DHT22;40337;52.978;6.310;2022-11-20T04:50:45;0.10;99.90
54429;DHT22;40337;52.978;6.310;2022-11-20T04:53:10;0.10;99.90
54429;DHT22;40337;52.978;6.310;2022-11-20T04:55:36;0.00;99.90
54429;DHT22;40337;52.978;6.310;2022-11-20T04:58:01;0.00;99.90
54429;DHT22;40337;52.978;6.310;2022-11-20T05:00:27;0.00;99.90
54429;DHT22;40337;52.978;6.310;2022-11-20T05:02:52;0.00;99.90
54429;DHT22;40337;52.978;6.310;2022-11-20T05:05:18;0.00;99.90
54429;DHT22;40337;52.978;6.310;2022-11-20T05:07:44;0.00;99.90
54429;DHT22;40337;52.978;6.310;2022-11-20T05:10:09;0.10;99.90
54429;DHT22;40337;52.978;6.310;2022-11-20T05:12:35;0.10;99.90
54429;DHT22;40337;52.978;6.310;2022-11-20T05:15:00;0.10;99.90
54429;DHT22;40337;52.978;6.310;2022-11-20T05:17:26;0.10;99.90
54429;DHT22;40337;52.978;6.310;2022-11-20T05:19:51;0.10;99.90
54429;DHT22;40337;52.978;6.310;2022-11-20T05:22:17;0.20;99.90
54429;DHT22;40337;52.978;6.310;2022-11-20T05:24:42;0.20;99.90
54429;DHT22;40337;52.978;6.310;2022-11-20T05:27:08;0.20;99.90
54429;DHT22;40337;52.978;6.310;2022-11-20T05:29:33;0.30;99.90
54429;DHT22;40337;52.978;6.310;2022-11-20T05:31:59;0.30;99.90
54429;DHT22;40337;52.978;6.310;2022-11-20T05:34:24;0.30;99.90
54429;DHT22;40337;52.978;6.310;2022-11-20T05:36:50;0.40;99.90
54429;DHT22;40337;52.978;6.310;2022-11-20T05:39:15;0.40;99.90
54429;DHT22;40337;52.978;6.310;2022-11-20T05:41:41;0.30;99.90
54429;DHT22;40337;52.978;6.310;2022-11-20T05:44:06;0.30;99.90
54429;DHT22;40337;52.978;6.310;2022-11-20T05:46:32;0.40;99.90
54429;DHT22;40337;52.978;6.310;2022-11-20T05:48:58;0.40;99.90
54429;DHT22;40337;52.978;6.310;2022-11-20T05:51:24;0.40;99.90
54429;DHT22;40337;52.978;6.310;2022-11-20T05:53:50;0.50;99.90
54429;DHT22;40337;52.978;6.310;2022-11-20T05:56:18;0.50;99.90
54429;DHT22;40337;52.978;6.310;2022-11-20T05:58:44;0.50;99.90
54429;DHT22;40337;52.978;6.310;2022-11-20T06:01:25;0.40;99.90
54429;DHT22;40337;52.978;6.310;2022-11-20T06:03:52;0.40;99.90
54429;DHT22;40337;52.978;6.310;2022-11-20T06:06:19;0.40;99.90
54429;DHT22;40337;52.978;6.310;2022-11-20T06:08:45;0.40;99.90
54429;DHT22;40337;52.978;6.310;2022-11-20T06:11:12;0.40;99.90
54429;DHT22;40337;52.978;6.310;2022-11-20T06:13:38;0.40;99.90
54429;DHT22;40337;52.978;6.310;2022-11-20T06:16:04;0.50;99.90
54429;DHT22;40337;52.978;6.310;2022-11-20T06:18:30;0.40;99.90
54429;DHT22;40337;52.978;6.310;2022-11-20T06:21:00;0.40;99.90
54429;DHT22;40337;52.978;6.310;2022-11-20T06:23:28;0.40;99.90
54429;DHT22;40337;52.978;6.310;2022-11-20T06:25:54;0.40;99.90
54429;DHT22;40337;52.978;6.310;2022-11-20T06:28:20;0.40;99.90
54429;DHT22;40337;52.978;6.310;2022-11-20T06:30:45;0.50;99.90
54429;DHT22;40337;52.978;6.310;2022-11-20T06:33:11;0.50;99.90
54429;DHT22;40337;52.978;6.310;2022-11-20T06:35:36;0.50;99.90
54429;DHT22;40337;52.978;6.310;2022-11-20T06:38:02;0.40;99.90
54429;DHT22;40337;52.978;6.310;2022-11-20T06:40:27;0.40;99.90
54429;DHT22;40337;52.978;6.310;2022-11-20T06:42:54;0.40;99.90
54429;DHT22;40337;52.978;6.310;2022-11-20T06:45:20;0.40;99.90
54429;DHT22;40337;52.978;6.310;2022-11-20T06:47:46;0.40;99.90
54429;DHT22;40337;52.978;6.310;2022-11-20T06:50:12;0.30;99.90
54429;DHT22;40337;52.978;6.310;2022-11-20T06:52:38;0.40;99.90
54429;DHT22;40337;52.978;6.310;2022-11-20T06:55:04;0.30;99.90
54429;DHT22;40337;52.978;6.310;2022-11-20T06:57:29;0.30;99.90
54429;DHT22;40337;52.978;6.310;2022-11-20T06:59:55;0.30;99.90
54429;DHT22;40337;52.978;6.310;2022-11-20T07:02:20;0.30;99.90
54429;DHT22;40337;52.978;6.310;2022-11-20T07:04:46;0.30;99.90
54429;DHT22;40337;52.978;6.310;2022-11-20T07:07:11;0.30;99.90
54429;DHT22;40337;52.978;6.310;2022-11-20T07:09:37;0.30;99.90
54429;DHT22;40337;52.978;6.310;2022-11-20T07:12:02;0.30;99.90
54429;DHT22;40337;52.978;6.310;2022-11-20T07:14:28;0.30;99.90
54429;DHT22;40337;52.978;6.310;2022-11-20T07:16:54;0.30;99.90
54429;DHT22;40337;52.978;6.310;2022-11-20T07:19:19;0.30;99.90
54429;DHT22;40337;52.978;6.310;2022-11-20T07:21:45;0.30;99.90
54429;DHT22;40337;52.978;6.310;2022-11-20T07:24:10;0.20;99.90
54429;DHT22;40337;52.978;6.310;2022-11-20T07:26:36;0.20;99.90
54429;DHT22;40337;52.978;6.310;2022-11-20T07:29:01;0.20;99.90
54429;DHT22;40337;52.978;6.310;2022-11-20T07:31:27;0.10;99.90
54429;DHT22;40337;52.978;6.310;2022-11-20T07:33:52;0.10;99.90
54429;DHT22;40337;52.978;6.310;2022-11-20T07:36:18;0.10;99.90
54429;DHT22;40337;52.978;6.310;2022-11-20T07:38:43;0.10;99.90
54429;DHT22;40337;52.978;6.310;2022-11-20T07:41:09;0.10;99.90
54429;DHT22;40337;52.978;6.310;2022-11-20T07:43:35;0.10;99.90
54429;DHT22;40337;52.978;6.310;2022-11-20T07:46:00;0.20;99.90
54429;DHT22;40337;52.978;6.310;2022-11-20T07:48:26;0.20;99.90
54429;DHT22;40337;52.978;6.310;2022-11-20T07:50:55;0.20;99.90
54429;DHT22;40337;52.978;6.310;2022-11-20T07:53:21;0.30;99.90
54429;DHT22;40337;52.978;6.310;2022-11-20T07:55:49;0.20;99.90
54429;DHT22;40337;52.978;6.310;2022-11-20T07:58:15;0.20;99.90
54429;DHT22;40337;52.978;6.310;2022-11-20T08:00:41;0.30;99.90
54429;DHT22;40337;52.978;6.310;2022-11-20T08:03:07;0.30;99.90
54429;DHT22;40337;52.978;6.310;2022-11-20T08:05:33;0.30;99.90
54429;DHT22;40337;52.978;6.310;2022-11-20T08:07:59;0.40;99.90
54429;DHT22;40337;52.978;6.310;2022-11-20T08:10:24;0.40;99.90
54429;DHT22;40337;52.978;6.310;2022-11-20T08:12:51;0.50;99.90
54429;DHT22;40337;52.978;6.310;2022-11-20T08:15:37;0.40;99.90
54429;DHT22;40337;52.978;6.310;2022-11-20T08:20:30;0.40;99.90
54429;DHT22;40337;52.978;6.310;2022-11-20T08:23:01;0.50;99.90
54429;DHT22;40337;52.978;6.310;2022-11-20T08:25:28;0.50;99.90
54429;DHT22;40337;52.978;6.310;2022-11-20T08:27:54;0.50;99.90
54429;DHT22;40337;52.978;6.310;2022-11-20T08:30:21;0.50;99.90
54429;DHT22;40337;52.978;6.310;2022-11-20T08:32:47;0.50;99.90
54429;DHT22;40337;52.978;6.310;2022-11-20T08:35:13;0.50;99.90
54429;DHT22;40337;52.978;6.310;2022-11-20T08:37:38;0.50;99.90
54429;DHT22;40337;52.978;6.310;2022-11-20T08:40:09;0.50;99.90
54429;DHT22;40337;52.978;6.310;2022-11-20T08:42:35;0.50;99.90
54429;DHT22;40337;52.978;6.310;2022-11-20T08:45:00;0.60;99.90
54429;DHT22;40337;52.978;6.310;2022-11-20T08:47:26;0.60;99.90
54429;DHT22;40337;52.978;6.310;2022-11-20T08:49:51;0.70;99.90
54429;DHT22;40337;52.978;6.310;2022-11-20T08:52:17;0.70;99.90
54429;DHT22;40337;52.978;6.310;2022-11-20T08:54:42;0.70;99.90
54429;DHT22;40337;52.978;6.310;2022-11-20T08:57:08;0.70;99.90
54429;DHT22;40337;52.978;6.310;2022-11-20T08:59:33;0.70;99.90
54429;DHT22;40337;52.978;6.310;2022-11-20T09:01:59;0.70;99.90
54429;DHT22;40337;52.978;6.310;2022-11-20T09:04:25;0.80;99.90
54429;DHT22;40337;52.978;6.310;2022-11-20T09:06:50;0.90;99.90
54429;DHT22;40337;52.978;6.310;2022-11-20T09:09:17;0.90;99.90
54429;DHT22;40337;52.978;6.310;2022-11-20T09:11:43;0.90;99.90
54429;DHT22;40337;52.978;6.310;2022-11-20T09:14:09;1.10;99.90
54429;DHT22;40337;52.978;6.310;2022-11-20T09:16:35;1.20;99.90
54429;DHT22;40337;52.978;6.310;2022-11-20T09:19:00;1.20;99.90
54429;DHT22;40337;52.978;6.310;2022-11-20T09:21:26;1.40;99.90
54429;DHT22;40337;52.978;6.310;2022-11-20T09:23:51;1.50;99.90
54429;DHT22;40337;52.978;6.310;2022-11-20T09:26:17;1.50;99.90
54429;DHT22;40337;52.978;6.310;2022-11-20T09:28:42;1.60;99.90
54429;DHT22;40337;52.978;6.310;2022-11-20T09:31:11;1.60;99.90
54429;DHT22;40337;52.978;6.310;2022-11-20T09:33:39;1.60;99.90
54429;DHT22;40337;52.978;6.310;2022-11-20T09:36:04;1.60;99.90
54429;DHT22;40337;52.978;6.310;2022-11-20T09:38:30;1.70;99.90
54429;DHT22;40337;52.978;6.310;2022-11-20T09:40:57;1.80;99.90
54429;DHT22;40337;52.978;6.310;2022-11-20T09:43:51;1.80;99.90
54429;DHT22;40337;52.978;6.310;2022-11-20T09:49:28;2.00;99.90
54429;DHT22;40337;52.978;6.310;2022-11-20T09:52:30;2.10;99.90
54429;DHT22;40337;52.978;6.310;2022-11-20T09:54:58;2.10;99.90
54429;DHT22;40337;52.978;6.310;2022-11-20T09:57:39;2.10;99.90
54429;DHT22;40337;52.978;6.310;2022-11-20T10:00:11;2.20;99.90
54429;DHT22;40337;52.978;6.310;2022-11-20T10:02:58;2.30;99.90
54429;DHT22;40337;52.978;6.310;2022-11-20T10:05:40;2.40;99.90
54429;DHT22;40337;52.978;6.310;2022-11-20T10:08:19;2.50;99.90
54429;DHT22;40337;52.978;6.310;2022-11-20T10:11:04;2.50;99.90
54429;DHT22;40337;52.978;6.310;2022-11-20T10:13:45;2.60;99.90
54429;DHT22;40337;52.978;6.310;2022-11-20T10:22:42;2.80;99.90
54429;DHT22;40337;52.978;6.310;2022-11-20T10:25:18;2.90;99.90
54429;DHT22;40337;52.978;6.310;2022-11-20T10:28:07;3.00;99.90
54429;DHT22;40337;52.978;6.310;2022-11-20T10:30:42;3.00;99.90
54429;DHT22;40337;52.978;6.310;2022-11-20T10:33:21;3.10;99.90
54429;DHT22;40337;52.978;6.310;2022-11-20T10:36:17;3.20;99.90
54429;DHT22;40337;52.978;6.310;2022-11-20T10:38:48;3.20;99.90
54429;DHT22;40337;52.978;6.310;2022-11-20T10:41:28;3.20;99.90
54429;DHT22;40337;52.978;6.310;2022-11-20T10:44:05;3.20;99.90
54429;DHT22;40337;52.978;6.310;2022-11-20T10:46:49;3.30;99.90
54429;DHT22;40337;52.978;6.310;2022-11-20T10:49:33;3.40;99.90
54429;DHT22;40337;52.978;6.310;2022-11-20T10:52:13;3.60;99.90
54429;DHT22;40337;52.978;6.310;2022-11-20T10:58:04;3.60;99.90
54429;DHT22;40337;52.978;6.310;2022-11-20T11:00:33;3.70;99.90
54429;DHT22;40337;52.978;6.310;2022-11-20T11:02:59;3.70;99.90
54429;DHT22;40337;52.978;6.310;2022-11-20T11:05:51;3.80;99.90
54429;DHT22;40337;52.978;6.310;2022-11-20T11:08:19;3.80;99.90
54429;DHT22;40337;52.978;6.310;2022-11-20T11:10:59;3.80;99.90
54429;DHT22;40337;52.978;6.310;2022-11-20T11:13:28;3.90;99.90
54429;DHT22;40337;52.978;6.310;2022-11-20T11:15:54;3.80;99.90
54429;DHT22;40337;52.978;6.310;2022-11-20T11:18:38;3.90;99.90
54429;DHT22;40337;52.978;6.310;2022-11-20T11:21:05;4.00;99.90
54429;DHT22;40337;52.978;6.310;2022-11-20T11:23:41;4.20;99.90
54429;DHT22;40337;52.978;6.310;2022-11-20T11:26:20;4.40;99.90
54429;DHT22;40337;52.978;6.310;2022-11-20T11:29:00;4.60;99.90
54429;DHT22;40337;52.978;6.310;2022-11-20T11:31:34;4.70;99.90
54429;DHT22;40337;52.978;6.310;2022-11-20T11:34:26;4.80;99.90
54429;DHT22;40337;52.978;6.310;2022-11-20T11:36:59;4.70;99.90
54429;DHT22;40337;52.978;6.310;2022-11-20T11:39:27;4.60;99.90
54429;DHT22;40337;52.978;6.310;2022-11-20T11:41:54;4.70;99.90
54429;DHT22;40337;52.978;6.310;2022-11-20T11:44:30;4.80;99.90
54429;DHT22;40337;52.978;6.310;2022-11-20T11:52:44;4.70;99.90
54429;DHT22;40337;52.978;6.310;2022-11-20T11:55:26;4.60;99.90
54429;DHT22;40337;52.978;6.310;2022-11-20T11:58:28;4.60;99.90
54429;DHT22;40337;52.978;6.310;2022-11-20T12:01:20;4.60;99.90
54429;DHT22;40337;52.978;6.310;2022-11-20T12:03:59;4.40;99.90
54429;DHT22;40337;52.978;6.310;2022-11-20T12:06:26;4.30;99.90
54429;DHT22;40337;52.978;6.310;2022-11-20T12:09:04;4.40;99.90
54429;DHT22;40337;52.978;6.310;2022-11-20T12:11:54;4.30;99.90
54429;DHT22;40337;52.978;6.310;2022-11-20T12:14:38;4.30;99.90
54429;DHT22;40337;52.978;6.310;2022-11-20T12:17:11;4.40;99.90
54429;DHT22;40337;52.978;6.310;2022-11-20T12:19:37;4.40;99.90
54429;DHT22;40337;52.978;6.310;2022-11-20T12:25:16;4.40;99.90
54429;DHT22;40337;52.978;6.310;2022-11-20T12:30:32;4.30;99.90
54429;DHT22;40337;52.978;6.310;2022-11-20T12:33:22;4.30;99.90
54429;DHT22;40337;52.978;6.310;2022-11-20T12:36:23;4.40;99.90
54429;DHT22;40337;52.978;6.310;2022-11-20T12:41:43;4.40;99.90
54429;DHT22;40337;52.978;6.310;2022-11-20T12:44:57;4.40;99.90
54429;DHT22;40337;52.978;6.310;2022-11-20T12:50:51;4.30;99.90
54429;DHT22;40337;52.978;6.310;2022-11-20T13:02:15;4.20;99.90
54429;DHT22;40337;52.978;6.310;2022-11-20T13:07:33;4.00;99.90
54429;DHT22;40337;52.978;6.310;2022-11-20T13:10:00;4.00;99.90
54429;DHT22;40337;52.978;6.310;2022-11-20T13:12:47;4.00;99.90
54429;DHT22;40337;52.978;6.310;2022-11-20T13:15:26;4.00;99.90
54429;DHT22;40337;52.978;6.310;2022-11-20T13:17:58;4.00;99.90
54429;DHT22;40337;52.978;6.310;2022-11-20T13:20:25;3.90;99.90
54429;DHT22;40337;52.978;6.310;2022-11-20T13:22:53;3.90;99.90
54429;DHT22;40337;52.978;6.310;2022-11-20T13:25:27;3.80;99.90
54429;DHT22;40337;52.978;6.310;2022-11-20T13:27:54;3.80;99.90
54429;DHT22;40337;52.978;6.310;2022-11-20T13:30:23;3.70;99.90
54429;DHT22;40337;52.978;6.310;2022-11-20T13:33:06;3.70;99.90
54429;DHT22;40337;52.978;6.310;2022-11-20T13:35:37;3.70;99.90
54429;DHT22;40337;52.978;6.310;2022-11-20T13:38:11;3.80;99.90
54429;DHT22;40337;52.978;6.310;2022-11-20T13:40:50;3.80;99.90
54429;DHT22;40337;52.978;6.310;2022-11-20T13:43:37;3.80;99.90
54429;DHT22;40337;52.978;6.310;2022-11-20T13:46:08;3.80;99.90
54429;DHT22;40337;52.978;6.310;2022-11-20T13:48:45;3.70;99.90
54429;DHT22;40337;52.978;6.310;2022-11-20T13:51:40;3.70;99.90
54429;DHT22;40337;52.978;6.310;2022-11-20T13:57:30;3.80;99.90
54429;DHT22;40337;52.978;6.310;2022-11-20T14:02:30;3.70;99.90
54429;DHT22;40337;52.978;6.310;2022-11-20T14:05:00;3.70;99.90
54429;DHT22;40337;52.978;6.310;2022-11-20T14:07:39;3.70;99.90
54429;DHT22;40337;52.978;6.310;2022-11-20T14:10:17;3.70;99.90
54429;DHT22;40337;52.978;6.310;2022-11-20T14:12:44;3.70;99.90
54429;DHT22;40337;52.978;6.310;2022-11-20T14:15:31;3.70;99.90
54429;DHT22;40337;52.978;6.310;2022-11-20T14:17:58;3.70;99.90
54429;DHT22;40337;52.978;6.310;2022-11-20T14:20:26;3.60;99.90
54429;DHT22;40337;52.978;6.310;2022-11-20T14:22:53;3.60;99.90
54429;DHT22;40337;52.978;6.310;2022-11-20T14:25:25;3.50;99.90
54429;DHT22;40337;52.978;6.310;2022-11-20T14:27:57;3.60;99.90
54429;DHT22;40337;52.978;6.310;2022-11-20T14:30:29;3.50;99.90
54429;DHT22;40337;52.978;6.310;2022-11-20T14:33:02;3.50;99.90
54429;DHT22;40337;52.978;6.310;2022-11-20T14:35:40;3.50;99.90
54429;DHT22;40337;52.978;6.310;2022-11-20T14:38:12;3.50;99.90
54429;DHT22;40337;52.978;6.310;2022-11-20T14:40:38;3.40;99.90
54429;DHT22;40337;52.978;6.310;2022-11-20T14:43:25;3.40;99.90
54429;DHT22;40337;52.978;6.310;2022-11-20T14:46:08;3.40;99.90
54429;DHT22;40337;52.978;6.310;2022-11-20T14:51:05;3.30;99.90
54429;DHT22;40337;52.978;6.310;2022-11-20T14:53:30;3.20;99.90
54429;DHT22;40337;52.978;6.310;2022-11-20T14:56:01;3.20;99.90
54429;DHT22;40337;52.978;6.310;2022-11-20T14:58:29;3.20;99.90
54429;DHT22;40337;52.978;6.310;2022-11-20T15:01:20;3.10;99.90
54429;DHT22;40337;52.978;6.310;2022-11-20T15:04:02;3.10;99.90
54429;DHT22;40337;52.978;6.310;2022-11-20T15:06:30;3.00;99.90
54429;DHT22;40337;52.978;6.310;2022-11-20T15:08:57;3.00;99.90
54429;DHT22;40337;52.978;6.310;2022-11-20T15:11:28;3.00;99.90
54429;DHT22;40337;52.978;6.310;2022-11-20T15:13:55;3.00;99.90
54429;DHT22;40337;52.978;6.310;2022-11-20T15:16:22;3.00;99.90
54429;DHT22;40337;52.978;6.310;2022-11-20T15:18:48;2.90;99.90
54429;DHT22;40337;52.978;6.310;2022-11-20T15:21:16;2.90;99.90
54429;DHT22;40337;52.978;6.310;2022-11-20T15:23:42;2.90;99.90
54429;DHT22;40337;52.978;6.310;2022-11-20T15:26:10;2.90;99.90
54429;DHT22;40337;52.978;6.310;2022-11-20T15:28:41;2.90;99.90
54429;DHT22;40337;52.978;6.310;2022-11-20T15:31:11;2.90;99.90
54429;DHT22;40337;52.978;6.310;2022-11-20T15:33:37;2.90;99.90
54429;DHT22;40337;52.978;6.310;2022-11-20T15:36:03;2.90;99.90
54429;DHT22;40337;52.978;6.310;2022-11-20T15:38:29;2.90;99.90
54429;DHT22;40337;52.978;6.310;2022-11-20T15:40:55;2.90;99.90
54429;DHT22;40337;52.978;6.310;2022-11-20T15:43:20;2.80;99.90
54429;DHT22;40337;52.978;6.310;2022-11-20T15:45:46;2.80;99.90
54429;DHT22;40337;52.978;6.310;2022-11-20T15:48:25;2.80;99.90
54429;DHT22;40337;52.978;6.310;2022-11-20T15:53:23;2.80;99.90
54429;DHT22;40337;52.978;6.310;2022-11-20T15:55:48;2.80;99.90
54429;DHT22;40337;52.978;6.310;2022-11-20T15:58:14;2.80;99.90
54429;DHT22;40337;52.978;6.310;2022-11-20T16:00:42;2.80;99.90
54429;DHT22;40337;52.978;6.310;2022-11-20T16:03:12;2.80;99.90
54429;DHT22;40337;52.978;6.310;2022-11-20T16:05:38;2.80;99.90
54429;DHT22;40337;52.978;6.310;2022-11-20T16:08:04;2.80;99.90
54429;DHT22;40337;52.978;6.310;2022-11-20T16:10:29;2.80;99.90
54429;DHT22;40337;52.978;6.310;2022-11-20T16:12:55;2.80;99.90
54429;DHT22;40337;52.978;6.310;2022-11-20T16:15:39;2.80;99.90
54429;DHT22;40337;52.978;6.310;2022-11-20T16:18:21;2.80;99.90
54429;DHT22;40337;52.978;6.310;2022-11-20T16:20:56;2.70;99.90
54429;DHT22;40337;52.978;6.310;2022-11-20T16:23:21;2.70;99.90
54429;DHT22;40337;52.978;6.310;2022-11-20T16:25:47;2.70;99.90
54429;DHT22;40337;52.978;6.310;2022-11-20T16:28:13;2.70;99.90
54429;DHT22;40337;52.978;6.310;2022-11-20T16:30:39;2.70;99.90
54429;DHT22;40337;52.978;6.310;2022-11-20T16:33:10;2.70;99.90
54429;DHT22;40337;52.978;6.310;2022-11-20T16:35:36;2.70;99.90
54429;DHT22;40337;52.978;6.310;2022-11-20T16:38:01;2.70;99.90
54429;DHT22;40337;52.978;6.310;2022-11-20T16:40:27;2.70;99.90
54429;DHT22;40337;52.978;6.310;2022-11-20T16:42:52;2.70;99.90
54429;DHT22;40337;52.978;6.310;2022-11-20T16:45:18;2.70;99.90
54429;DHT22;40337;52.978;6.310;2022-11-20T16:47:44;2.70;99.90
54429;DHT22;40337;52.978;6.310;2022-11-20T16:50:09;2.70;99.90
54429;DHT22;40337;52.978;6.310;2022-11-20T16:52:35;2.70;99.90
54429;DHT22;40337;52.978;6.310;2022-11-20T16:55:01;2.70;99.90
54429;DHT22;40337;52.978;6.310;2022-11-20T16:57:30;2.70;99.90
54429;DHT22;40337;52.978;6.310;2022-11-20T16:59:58;2.70;99.90
54429;DHT22;40337;52.978;6.310;2022-11-20T17:02:23;2.70;99.90